sensor_id;sensor_type;location;lat;lon;timestamp;P1;durP1;ratioP1;P2;durP2;ratioP2
74543;SDS011;63016;55.030;38.710;2023-03-21T00:01:18;15.52;;;9.10;;
74543;SDS011;63016;55.030;38.710;2023-03-21T00:03:43;16.80;;;9.10;;
74543;SDS011;63016;55.030;38.710;2023-03-21T00:06:11;14.63;;;9.13;;
74543;SDS011;63016;55.030;38.710;2023-03-21T00:08:37;14.52;;;8.93;;
74543;SDS011;63016;55.030;38.710;2023-03-21T00:11:05;16.08;;;8.63;;
74543;SDS011;63016;55.030;38.710;2023-03-21T00:13:32;16.42;;;9.10;;
74543;SDS011;63016;55.030;38.710;2023-03-21T00:16:05;15.43;;;8.63;;
74543;SDS011;63016;55.030;38.710;2023-03-21T00:18:39;18.48;;;9.23;;
74543;SDS011;63016;55.030;38.710;2023-03-21T00:21:06;17.08;;;9.35;;
74543;SDS011;63016;55.030;38.710;2023-03-21T00:23:34;18.25;;;9.48;;
74543;SDS011;63016;55.030;38.710;2023-03-21T00:26:00;18.20;;;8.98;;
74543;SDS011;63016;55.030;38.710;2023-03-21T00:28:27;16.40;;;9.23;;
74543;SDS011;63016;55.030;38.710;2023-03-21T00:30:59;15.75;;;9.38;;
74543;SDS011;63016;55.030;38.710;2023-03-21T00:33:25;17.15;;;9.30;;
74543;SDS011;63016;55.030;38.710;2023-03-21T00:35:51;17.40;;;9.35;;
74543;SDS011;63016;55.030;38.710;2023-03-21T00:38:18;18.02;;;9.63;;
74543;SDS011;63016;55.030;38.710;2023-03-21T00:40:45;17.65;;;9.35;;
74543;SDS011;63016;55.030;38.710;2023-03-21T00:43:11;20.98;;;9.85;;
74543;SDS011;63016;55.030;38.710;2023-03-21T00:45:38;19.92;;;9.65;;
74543;SDS011;63016;55.030;38.710;2023-03-21T00:48:04;19.63;;;10.15;;
74543;SDS011;63016;55.030;38.710;2023-03-21T00:50:30;19.92;;;10.85;;
74543;SDS011;63016;55.030;38.710;2023-03-21T00:52:56;16.50;;;9.65;;
74543;SDS011;63016;55.030;38.710;2023-03-21T00:55:22;21.73;;;10.20;;
74543;SDS011;63016;55.030;38.710;2023-03-21T00:57:48;19.08;;;10.18;;
74543;SDS011;63016;55.030;38.710;2023-03-21T01:00:14;20.48;;;10.20;;
74543;SDS011;63016;55.030;38.710;2023-03-21T01:02:42;19.63;;;10.30;;
74543;SDS011;63016;55.030;38.710;2023-03-21T01:05:20;18.92;;;10.00;;
74543;SDS011;63016;55.030;38.710;2023-03-21T01:08:08;19.65;;;10.45;;
74543;SDS011;63016;55.030;38.710;2023-03-21T01:10:40;21.98;;;10.63;;
74543;SDS011;63016;55.030;38.710;2023-03-21T01:13:07;18.85;;;10.45;;
74543;SDS011;63016;55.030;38.710;2023-03-21T01:15:33;19.67;;;10.93;;
74543;SDS011;63016;55.030;38.710;2023-03-21T01:18:00;21.98;;;10.93;;
74543;SDS011;63016;55.030;38.710;2023-03-21T01:20:26;20.33;;;11.18;;
74543;SDS011;63016;55.030;38.710;2023-03-21T01:22:52;20.85;;;10.75;;
74543;SDS011;63016;55.030;38.710;2023-03-21T01:25:17;23.10;;;11.15;;
74543;SDS011;63016;55.030;38.710;2023-03-21T01:27:43;19.48;;;10.98;;
74543;SDS011;63016;55.030;38.710;2023-03-21T01:30:09;23.98;;;11.38;;
74543;SDS011;63016;55.030;38.710;2023-03-21T01:32:35;19.17;;;10.02;;
74543;SDS011;63016;55.030;38.710;2023-03-21T01:35:00;20.52;;;10.75;;
74543;SDS011;63016;55.030;38.710;2023-03-21T01:37:26;27.35;;;12.07;;
74543;SDS011;63016;55.030;38.710;2023-03-21T01:39:51;28.33;;;11.40;;
74543;SDS011;63016;55.030;38.710;2023-03-21T01:42:17;20.75;;;11.35;;
74543;SDS011;63016;55.030;38.710;2023-03-21T01:45:02;23.23;;;11.10;;
74543;SDS011;63016;55.030;38.710;2023-03-21T01:47:30;23.38;;;10.98;;
74543;SDS011;63016;55.030;38.710;2023-03-21T01:49:56;21.15;;;11.50;;
74543;SDS011;63016;55.030;38.710;2023-03-21T01:52:27;22.95;;;11.27;;
74543;SDS011;63016;55.030;38.710;2023-03-21T01:54:57;25.63;;;11.18;;
74543;SDS011;63016;55.030;38.710;2023-03-21T01:57:26;21.88;;;11.43;;
74543;SDS011;63016;55.030;38.710;2023-03-21T01:59:56;20.92;;;11.13;;
74543;SDS011;63016;55.030;38.710;2023-03-21T02:02:27;21.63;;;10.43;;
74543;SDS011;63016;55.030;38.710;2023-03-21T02:04:55;20.55;;;11.50;;
74543;SDS011;63016;55.030;38.710;2023-03-21T02:07:28;23.25;;;10.95;;
74543;SDS011;63016;55.030;38.710;2023-03-21T02:10:01;23.23;;;11.68;;
74543;SDS011;63016;55.030;38.710;2023-03-21T02:12:32;22.42;;;11.40;;
74543;SDS011;63016;55.030;38.710;2023-03-21T02:14:58;23.17;;;10.90;;
74543;SDS011;63016;55.030;38.710;2023-03-21T02:28:24;25.55;;;11.48;;
74543;SDS011;63016;55.030;38.710;2023-03-21T02:44:42;22.98;;;11.23;;
74543;SDS011;63016;55.030;38.710;2023-03-21T02:52:44;26.05;;;11.15;;
74543;SDS011;63016;55.030;38.710;2023-03-21T02:55:16;24.92;;;11.45;;
74543;SDS011;63016;55.030;38.710;2023-03-21T02:57:50;22.98;;;11.40;;
74543;SDS011;63016;55.030;38.710;2023-03-21T03:00:19;24.13;;;11.43;;
74543;SDS011;63016;55.030;38.710;2023-03-21T03:02:47;24.10;;;11.50;;
74543;SDS011;63016;55.030;38.710;2023-03-21T03:05:19;26.65;;;11.18;;
74543;SDS011;63016;55.030;38.710;2023-03-21T03:13:24;29.27;;;13.13;;
74543;SDS011;63016;55.030;38.710;2023-03-21T03:19:14;28.48;;;12.00;;
74543;SDS011;63016;55.030;38.710;2023-03-21T03:21:48;26.80;;;12.18;;
74543;SDS011;63016;55.030;38.710;2023-03-21T03:24:21;28.05;;;11.60;;
74543;SDS011;63016;55.030;38.710;2023-03-21T03:26:55;27.52;;;12.77;;
74543;SDS011;63016;55.030;38.710;2023-03-21T03:29:24;28.80;;;11.75;;
74543;SDS011;63016;55.030;38.710;2023-03-21T03:31:55;31.48;;;12.82;;
74543;SDS011;63016;55.030;38.710;2023-03-21T03:34:27;31.48;;;12.85;;
74543;SDS011;63016;55.030;38.710;2023-03-21T03:36:58;33.42;;;13.65;;
74543;SDS011;63016;55.030;38.710;2023-03-21T03:39:36;31.65;;;13.10;;
74543;SDS011;63016;55.030;38.710;2023-03-21T03:42:18;28.85;;;12.65;;
74543;SDS011;63016;55.030;38.710;2023-03-21T03:44:48;30.58;;;12.82;;
74543;SDS011;63016;55.030;38.710;2023-03-21T03:47:22;27.60;;;12.63;;
74543;SDS011;63016;55.030;38.710;2023-03-21T03:49:54;24.55;;;12.40;;
74543;SDS011;63016;55.030;38.710;2023-03-21T03:52:30;33.95;;;12.63;;
74543;SDS011;63016;55.030;38.710;2023-03-21T03:55:00;28.10;;;13.27;;
74543;SDS011;63016;55.030;38.710;2023-03-21T03:57:26;35.85;;;13.77;;
74543;SDS011;63016;55.030;38.710;2023-03-21T03:59:53;33.97;;;14.00;;
74543;SDS011;63016;55.030;38.710;2023-03-21T04:02:20;29.85;;;13.43;;
74543;SDS011;63016;55.030;38.710;2023-03-21T04:04:45;32.47;;;13.52;;
74543;SDS011;63016;55.030;38.710;2023-03-21T04:07:12;27.70;;;12.80;;
74543;SDS011;63016;55.030;38.710;2023-03-21T04:09:38;36.60;;;14.05;;
74543;SDS011;63016;55.030;38.710;2023-03-21T04:12:03;36.25;;;14.82;;
74543;SDS011;63016;55.030;38.710;2023-03-21T04:14:29;39.65;;;14.65;;
74543;SDS011;63016;55.030;38.710;2023-03-21T04:16:54;42.33;;;15.35;;
74543;SDS011;63016;55.030;38.710;2023-03-21T04:19:20;36.75;;;15.38;;
74543;SDS011;63016;55.030;38.710;2023-03-21T04:21:46;40.08;;;16.27;;
74543;SDS011;63016;55.030;38.710;2023-03-21T04:24:12;37.03;;;15.77;;
74543;SDS011;63016;55.030;38.710;2023-03-21T04:26:39;45.95;;;16.45;;
74543;SDS011;63016;55.030;38.710;2023-03-21T04:29:05;39.80;;;16.15;;
74543;SDS011;63016;55.030;38.710;2023-03-21T04:31:31;37.85;;;15.52;;
74543;SDS011;63016;55.030;38.710;2023-03-21T04:34:01;40.67;;;15.88;;
74543;SDS011;63016;55.030;38.710;2023-03-21T04:36:29;43.45;;;16.00;;
74543;SDS011;63016;55.030;38.710;2023-03-21T04:39:02;45.08;;;17.73;;
74543;SDS011;63016;55.030;38.710;2023-03-21T04:41:33;43.58;;;17.75;;
74543;SDS011;63016;55.030;38.710;2023-03-21T04:44:01;48.65;;;17.52;;
74543;SDS011;63016;55.030;38.710;2023-03-21T04:46:27;41.20;;;16.80;;
74543;SDS011;63016;55.030;38.710;2023-03-21T04:48:52;41.42;;;16.75;;
74543;SDS011;63016;55.030;38.710;2023-03-21T04:51:18;48.65;;;18.73;;
74543;SDS011;63016;55.030;38.710;2023-03-21T04:53:43;41.85;;;17.98;;
74543;SDS011;63016;55.030;38.710;2023-03-21T04:56:11;50.80;;;17.95;;
74543;SDS011;63016;55.030;38.710;2023-03-21T04:58:37;43.63;;;17.10;;
74543;SDS011;63016;55.030;38.710;2023-03-21T05:01:05;45.42;;;17.30;;
74543;SDS011;63016;55.030;38.710;2023-03-21T05:03:31;48.50;;;18.35;;
74543;SDS011;63016;55.030;38.710;2023-03-21T05:06:01;42.40;;;17.80;;
74543;SDS011;63016;55.030;38.710;2023-03-21T05:08:27;49.20;;;18.83;;
74543;SDS011;63016;55.030;38.710;2023-03-21T05:10:53;46.30;;;18.85;;
74543;SDS011;63016;55.030;38.710;2023-03-21T05:13:18;51.53;;;19.52;;
74543;SDS011;63016;55.030;38.710;2023-03-21T05:15:44;50.63;;;19.05;;
74543;SDS011;63016;55.030;38.710;2023-03-21T05:18:10;50.05;;;19.17;;
74543;SDS011;63016;55.030;38.710;2023-03-21T05:20:39;50.22;;;18.50;;
74543;SDS011;63016;55.030;38.710;2023-03-21T05:23:08;49.85;;;18.15;;
74543;SDS011;63016;55.030;38.710;2023-03-21T05:25:35;48.60;;;19.98;;
74543;SDS011;63016;55.030;38.710;2023-03-21T05:28:02;45.35;;;17.52;;
74543;SDS011;63016;55.030;38.710;2023-03-21T05:30:29;49.08;;;18.83;;
74543;SDS011;63016;55.030;38.710;2023-03-21T05:32:55;44.70;;;18.73;;
74543;SDS011;63016;55.030;38.710;2023-03-21T05:35:20;48.85;;;19.85;;
74543;SDS011;63016;55.030;38.710;2023-03-21T05:37:46;47.17;;;18.77;;
74543;SDS011;63016;55.030;38.710;2023-03-21T05:40:12;45.35;;;19.15;;
74543;SDS011;63016;55.030;38.710;2023-03-21T05:42:37;48.08;;;20.00;;
74543;SDS011;63016;55.030;38.710;2023-03-21T05:45:03;50.70;;;19.63;;
74543;SDS011;63016;55.030;38.710;2023-03-21T05:47:29;47.95;;;20.13;;
74543;SDS011;63016;55.030;38.710;2023-03-21T05:49:55;46.15;;;19.60;;
74543;SDS011;63016;55.030;38.710;2023-03-21T05:52:20;44.42;;;19.00;;
74543;SDS011;63016;55.030;38.710;2023-03-21T05:54:46;48.50;;;19.35;;
74543;SDS011;63016;55.030;38.710;2023-03-21T05:57:12;46.78;;;19.95;;
74543;SDS011;63016;55.030;38.710;2023-03-21T05:59:37;54.17;;;20.10;;
74543;SDS011;63016;55.030;38.710;2023-03-21T06:02:03;46.38;;;19.15;;
74543;SDS011;63016;55.030;38.710;2023-03-21T06:04:29;47.40;;;20.08;;
74543;SDS011;63016;55.030;38.710;2023-03-21T06:06:55;45.70;;;19.67;;
74543;SDS011;63016;55.030;38.710;2023-03-21T06:09:21;46.67;;;19.77;;
74543;SDS011;63016;55.030;38.710;2023-03-21T06:11:47;46.45;;;19.95;;
74543;SDS011;63016;55.030;38.710;2023-03-21T06:14:16;44.13;;;19.27;;
74543;SDS011;63016;55.030;38.710;2023-03-21T06:16:42;51.45;;;20.15;;
74543;SDS011;63016;55.030;38.710;2023-03-21T06:19:08;47.97;;;19.05;;
74543;SDS011;63016;55.030;38.710;2023-03-21T06:21:33;48.97;;;20.33;;
74543;SDS011;63016;55.030;38.710;2023-03-21T06:23:59;49.55;;;20.92;;
74543;SDS011;63016;55.030;38.710;2023-03-21T06:26:25;45.88;;;19.73;;
74543;SDS011;63016;55.030;38.710;2023-03-21T06:28:51;48.90;;;19.92;;
74543;SDS011;63016;55.030;38.710;2023-03-21T06:31:17;45.58;;;19.08;;
74543;SDS011;63016;55.030;38.710;2023-03-21T06:33:46;43.38;;;18.75;;
74543;SDS011;63016;55.030;38.710;2023-03-21T06:36:12;42.80;;;18.58;;
74543;SDS011;63016;55.030;38.710;2023-03-21T06:38:38;41.58;;;18.00;;
74543;SDS011;63016;55.030;38.710;2023-03-21T06:41:04;45.55;;;19.08;;
74543;SDS011;63016;55.030;38.710;2023-03-21T06:43:31;39.58;;;18.58;;
74543;SDS011;63016;55.030;38.710;2023-03-21T06:45:57;45.65;;;17.95;;
74543;SDS011;63016;55.030;38.710;2023-03-21T06:48:23;44.38;;;18.50;;
74543;SDS011;63016;55.030;38.710;2023-03-21T06:50:50;44.05;;;18.60;;
74543;SDS011;63016;55.030;38.710;2023-03-21T06:53:17;39.25;;;17.55;;
74543;SDS011;63016;55.030;38.710;2023-03-21T06:55:51;44.50;;;18.90;;
74543;SDS011;63016;55.030;38.710;2023-03-21T06:58:17;42.50;;;18.33;;
74543;SDS011;63016;55.030;38.710;2023-03-21T07:00:43;44.85;;;18.35;;
74543;SDS011;63016;55.030;38.710;2023-03-21T07:03:10;41.03;;;17.63;;
74543;SDS011;63016;55.030;38.710;2023-03-21T07:05:36;44.22;;;17.58;;
74543;SDS011;63016;55.030;38.710;2023-03-21T07:08:03;44.53;;;18.13;;
74543;SDS011;63016;55.030;38.710;2023-03-21T07:10:29;42.72;;;18.23;;
74543;SDS011;63016;55.030;38.710;2023-03-21T07:12:55;47.05;;;17.52;;
74543;SDS011;63016;55.030;38.710;2023-03-21T07:15:22;43.92;;;18.77;;
74543;SDS011;63016;55.030;38.710;2023-03-21T07:17:47;42.28;;;18.23;;
74543;SDS011;63016;55.030;38.710;2023-03-21T07:20:13;40.85;;;17.70;;
74543;SDS011;63016;55.030;38.710;2023-03-21T07:22:39;39.00;;;17.35;;
74543;SDS011;63016;55.030;38.710;2023-03-21T07:25:05;44.22;;;17.73;;
74543;SDS011;63016;55.030;38.710;2023-03-21T07:27:31;43.42;;;18.10;;
74543;SDS011;63016;55.030;38.710;2023-03-21T07:29:57;40.05;;;17.23;;
74543;SDS011;63016;55.030;38.710;2023-03-21T07:32:23;43.00;;;18.05;;
74543;SDS011;63016;55.030;38.710;2023-03-21T07:34:48;41.97;;;17.83;;
74543;SDS011;63016;55.030;38.710;2023-03-21T07:37:14;40.92;;;16.63;;
74543;SDS011;63016;55.030;38.710;2023-03-21T07:39:40;38.05;;;16.88;;
74543;SDS011;63016;55.030;38.710;2023-03-21T07:42:07;40.22;;;16.80;;
74543;SDS011;63016;55.030;38.710;2023-03-21T07:44:33;43.88;;;16.80;;
74543;SDS011;63016;55.030;38.710;2023-03-21T07:46:58;37.13;;;15.60;;
74543;SDS011;63016;55.030;38.710;2023-03-21T07:49:24;37.17;;;15.60;;
74543;SDS011;63016;55.030;38.710;2023-03-21T07:51:50;37.72;;;15.43;;
74543;SDS011;63016;55.030;38.710;2023-03-21T07:54:16;33.63;;;15.35;;
74543;SDS011;63016;55.030;38.710;2023-03-21T07:56:45;36.45;;;15.57;;
74543;SDS011;63016;55.030;38.710;2023-03-21T07:59:10;42.03;;;15.90;;
74543;SDS011;63016;55.030;38.710;2023-03-21T08:01:35;38.60;;;16.02;;
74543;SDS011;63016;55.030;38.710;2023-03-21T08:04:01;33.13;;;14.85;;
74543;SDS011;63016;55.030;38.710;2023-03-21T08:06:27;36.03;;;15.55;;
74543;SDS011;63016;55.030;38.710;2023-03-21T08:08:53;41.75;;;15.57;;
74543;SDS011;63016;55.030;38.710;2023-03-21T08:11:18;35.25;;;15.48;;
74543;SDS011;63016;55.030;38.710;2023-03-21T08:13:46;32.95;;;15.85;;
74543;SDS011;63016;55.030;38.710;2023-03-21T08:16:11;35.75;;;14.93;;
74543;SDS011;63016;55.030;38.710;2023-03-21T08:18:37;30.02;;;14.35;;
74543;SDS011;63016;55.030;38.710;2023-03-21T08:21:02;32.03;;;14.13;;
74543;SDS011;63016;55.030;38.710;2023-03-21T08:23:28;36.45;;;16.08;;
74543;SDS011;63016;55.030;38.710;2023-03-21T08:25:54;34.75;;;15.13;;
74543;SDS011;63016;55.030;38.710;2023-03-21T08:28:21;37.42;;;16.23;;
74543;SDS011;63016;55.030;38.710;2023-03-21T08:30:47;40.05;;;17.50;;
74543;SDS011;63016;55.030;38.710;2023-03-21T08:33:14;37.35;;;16.65;;
74543;SDS011;63016;55.030;38.710;2023-03-21T08:35:41;36.72;;;16.38;;
74543;SDS011;63016;55.030;38.710;2023-03-21T08:38:07;35.78;;;16.08;;
74543;SDS011;63016;55.030;38.710;2023-03-21T08:40:34;34.78;;;16.25;;
74543;SDS011;63016;55.030;38.710;2023-03-21T08:43:00;37.40;;;16.95;;
74543;SDS011;63016;55.030;38.710;2023-03-21T08:45:26;38.58;;;15.25;;
74543;SDS011;63016;55.030;38.710;2023-03-21T08:47:51;34.65;;;15.02;;
74543;SDS011;63016;55.030;38.710;2023-03-21T08:50:18;32.22;;;16.20;;
74543;SDS011;63016;55.030;38.710;2023-03-21T08:52:46;33.83;;;15.18;;
74543;SDS011;63016;55.030;38.710;2023-03-21T08:55:13;29.35;;;14.98;;
74543;SDS011;63016;55.030;38.710;2023-03-21T08:57:39;27.77;;;14.02;;
74543;SDS011;63016;55.030;38.710;2023-03-21T09:00:06;27.08;;;14.00;;
74543;SDS011;63016;55.030;38.710;2023-03-21T09:02:38;26.50;;;13.15;;
74543;SDS011;63016;55.030;38.710;2023-03-21T09:05:07;28.80;;;12.90;;
74543;SDS011;63016;55.030;38.710;2023-03-21T09:07:33;28.52;;;12.82;;
74543;SDS011;63016;55.030;38.710;2023-03-21T09:10:07;29.20;;;11.88;;
74543;SDS011;63016;55.030;38.710;2023-03-21T09:12:37;22.80;;;11.40;;
74543;SDS011;63016;55.030;38.710;2023-03-21T09:15:03;23.23;;;10.55;;
74543;SDS011;63016;55.030;38.710;2023-03-21T09:17:29;21.10;;;9.75;;
74543;SDS011;63016;55.030;38.710;2023-03-21T09:19:56;19.52;;;9.32;;
74543;SDS011;63016;55.030;38.710;2023-03-21T09:22:24;22.67;;;9.55;;
74543;SDS011;63016;55.030;38.710;2023-03-21T09:24:51;18.67;;;8.45;;
74543;SDS011;63016;55.030;38.710;2023-03-21T09:27:17;19.63;;;8.50;;
74543;SDS011;63016;55.030;38.710;2023-03-21T09:29:47;20.17;;;9.85;;
74543;SDS011;63016;55.030;38.710;2023-03-21T09:32:13;23.15;;;10.02;;
74543;SDS011;63016;55.030;38.710;2023-03-21T09:34:39;24.27;;;10.98;;
74543;SDS011;63016;55.030;38.710;2023-03-21T09:37:08;22.02;;;11.02;;
74543;SDS011;63016;55.030;38.710;2023-03-21T09:39:39;22.10;;;9.90;;
74543;SDS011;63016;55.030;38.710;2023-03-21T09:47:27;22.95;;;9.68;;
74543;SDS011;63016;55.030;38.710;2023-03-21T09:50:05;23.33;;;9.18;;
74543;SDS011;63016;55.030;38.710;2023-03-21T09:53:00;19.27;;;8.50;;
74543;SDS011;63016;55.030;38.710;2023-03-21T09:55:35;16.40;;;8.02;;
74543;SDS011;63016;55.030;38.710;2023-03-21T10:03:54;14.45;;;7.30;;
74543;SDS011;63016;55.030;38.710;2023-03-21T10:06:24;13.52;;;7.10;;
74543;SDS011;63016;55.030;38.710;2023-03-21T10:09:36;13.35;;;6.50;;
74543;SDS011;63016;55.030;38.710;2023-03-21T10:12:00;14.13;;;6.43;;
74543;SDS011;63016;55.030;38.710;2023-03-21T10:14:35;13.32;;;6.38;;
74543;SDS011;63016;55.030;38.710;2023-03-21T10:20:03;13.70;;;6.90;;
74543;SDS011;63016;55.030;38.710;2023-03-21T10:22:41;14.75;;;6.85;;
74543;SDS011;63016;55.030;38.710;2023-03-21T10:25:12;14.35;;;6.47;;
74543;SDS011;63016;55.030;38.710;2023-03-21T10:27:43;16.20;;;7.00;;
74543;SDS011;63016;55.030;38.710;2023-03-21T10:30:20;14.75;;;6.28;;
74543;SDS011;63016;55.030;38.710;2023-03-21T10:32:55;13.70;;;6.70;;
74543;SDS011;63016;55.030;38.710;2023-03-21T10:35:23;11.52;;;6.32;;
74543;SDS011;63016;55.030;38.710;2023-03-21T10:41:14;17.35;;;7.50;;
74543;SDS011;63016;55.030;38.710;2023-03-21T10:43:39;17.15;;;8.38;;
74543;SDS011;63016;55.030;38.710;2023-03-21T10:46:10;20.85;;;8.57;;
74543;SDS011;63016;55.030;38.710;2023-03-21T10:48:46;18.42;;;8.70;;
74543;SDS011;63016;55.030;38.710;2023-03-21T10:51:20;19.37;;;8.83;;
74543;SDS011;63016;55.030;38.710;2023-03-21T10:54:12;16.92;;;8.52;;
74543;SDS011;63016;55.030;38.710;2023-03-21T10:56:42;23.02;;;9.48;;
74543;SDS011;63016;55.030;38.710;2023-03-21T10:59:16;22.83;;;9.48;;
74543;SDS011;63016;55.030;38.710;2023-03-21T11:01:49;17.13;;;8.63;;
74543;SDS011;63016;55.030;38.710;2023-03-21T11:04:17;20.92;;;9.63;;
74543;SDS011;63016;55.030;38.710;2023-03-21T11:06:50;22.33;;;10.20;;
74543;SDS011;63016;55.030;38.710;2023-03-21T11:09:19;15.88;;;8.35;;
74543;SDS011;63016;55.030;38.710;2023-03-21T11:14:31;17.75;;;8.48;;
74543;SDS011;63016;55.030;38.710;2023-03-21T11:16:57;18.98;;;8.23;;
74543;SDS011;63016;55.030;38.710;2023-03-21T11:19:31;17.38;;;8.07;;
74543;SDS011;63016;55.030;38.710;2023-03-21T11:22:06;17.08;;;7.63;;
74543;SDS011;63016;55.030;38.710;2023-03-21T11:24:32;17.77;;;7.10;;
74543;SDS011;63016;55.030;38.710;2023-03-21T11:26:59;11.90;;;6.32;;
74543;SDS011;63016;55.030;38.710;2023-03-21T11:29:35;16.33;;;7.20;;
74543;SDS011;63016;55.030;38.710;2023-03-21T11:32:12;16.25;;;6.68;;
74543;SDS011;63016;55.030;38.710;2023-03-21T11:37:24;17.10;;;7.32;;
74543;SDS011;63016;55.030;38.710;2023-03-21T11:40:35;14.98;;;7.47;;
74543;SDS011;63016;55.030;38.710;2023-03-21T11:42:50;13.55;;;7.45;;
74543;SDS011;63016;55.030;38.710;2023-03-21T11:47:45;19.17;;;8.15;;
74543;SDS011;63016;55.030;38.710;2023-03-21T11:53:39;17.50;;;7.60;;
74543;SDS011;63016;55.030;38.710;2023-03-21T11:56:28;18.48;;;7.72;;
74543;SDS011;63016;55.030;38.710;2023-03-21T12:01:28;13.70;;;7.32;;
74543;SDS011;63016;55.030;38.710;2023-03-21T12:09:46;12.07;;;7.00;;
74543;SDS011;63016;55.030;38.710;2023-03-21T12:12:45;14.05;;;6.25;;
74543;SDS011;63016;55.030;38.710;2023-03-21T12:21:14;13.25;;;5.95;;
74543;SDS011;63016;55.030;38.710;2023-03-21T12:24:00;13.85;;;6.05;;
74543;SDS011;63016;55.030;38.710;2023-03-21T12:35:49;11.95;;;5.32;;
74543;SDS011;63016;55.030;38.710;2023-03-21T12:38:22;10.60;;;5.55;;
74543;SDS011;63016;55.030;38.710;2023-03-21T12:43:38;10.77;;;5.68;;
74543;SDS011;63016;55.030;38.710;2023-03-21T12:48:58;11.95;;;5.70;;
74543;SDS011;63016;55.030;38.710;2023-03-21T12:51:36;9.68;;;4.25;;
74543;SDS011;63016;55.030;38.710;2023-03-21T12:54:12;9.10;;;4.95;;
74543;SDS011;63016;55.030;38.710;2023-03-21T12:59:38;9.90;;;4.75;;
74543;SDS011;63016;55.030;38.710;2023-03-21T13:03:05;10.35;;;4.93;;
74543;SDS011;63016;55.030;38.710;2023-03-21T13:10:32;10.02;;;4.78;;
74543;SDS011;63016;55.030;38.710;2023-03-21T13:15:56;10.80;;;5.30;;
74543;SDS011;63016;55.030;38.710;2023-03-21T13:18:32;7.88;;;4.78;;
74543;SDS011;63016;55.030;38.710;2023-03-21T13:21:06;11.20;;;4.95;;
74543;SDS011;63016;55.030;38.710;2023-03-21T13:23:39;9.32;;;5.15;;
74543;SDS011;63016;55.030;38.710;2023-03-21T13:26:08;10.10;;;4.95;;
74543;SDS011;63016;55.030;38.710;2023-03-21T13:28:35;8.02;;;4.50;;
74543;SDS011;63016;55.030;38.710;2023-03-21T13:31:14;10.73;;;4.60;;
74543;SDS011;63016;55.030;38.710;2023-03-21T13:33:49;9.68;;;4.82;;
74543;SDS011;63016;55.030;38.710;2023-03-21T13:36:24;9.75;;;4.15;;
74543;SDS011;63016;55.030;38.710;2023-03-21T13:38:53;9.00;;;4.53;;
74543;SDS011;63016;55.030;38.710;2023-03-21T13:48:58;7.78;;;3.75;;
74543;SDS011;63016;55.030;38.710;2023-03-21T13:54:27;8.57;;;3.85;;
74543;SDS011;63016;55.030;38.710;2023-03-21T13:56:49;6.85;;;3.45;;
74543;SDS011;63016;55.030;38.710;2023-03-21T14:04:45;8.25;;;3.40;;
74543;SDS011;63016;55.030;38.710;2023-03-21T14:07:18;5.80;;;3.53;;
74543;SDS011;63016;55.030;38.710;2023-03-21T14:09:52;8.77;;;3.80;;
74543;SDS011;63016;55.030;38.710;2023-03-21T14:12:23;6.95;;;3.50;;
74543;SDS011;63016;55.030;38.710;2023-03-21T14:14:52;6.90;;;2.88;;
74543;SDS011;63016;55.030;38.710;2023-03-21T14:17:27;7.70;;;3.35;;
74543;SDS011;63016;55.030;38.710;2023-03-21T14:22:25;8.70;;;3.30;;
74543;SDS011;63016;55.030;38.710;2023-03-21T14:24:58;7.22;;;3.65;;
74543;SDS011;63016;55.030;38.710;2023-03-21T14:27:30;7.63;;;3.00;;
74543;SDS011;63016;55.030;38.710;2023-03-21T14:29:57;8.15;;;3.13;;
74543;SDS011;63016;55.030;38.710;2023-03-21T14:32:25;7.05;;;3.10;;
74543;SDS011;63016;55.030;38.710;2023-03-21T14:34:53;5.45;;;2.70;;
74543;SDS011;63016;55.030;38.710;2023-03-21T14:37:26;5.47;;;3.00;;
74543;SDS011;63016;55.030;38.710;2023-03-21T14:40:04;8.02;;;3.30;;
74543;SDS011;63016;55.030;38.710;2023-03-21T14:42:36;5.68;;;3.30;;
74543;SDS011;63016;55.030;38.710;2023-03-21T14:45:20;6.20;;;3.13;;
74543;SDS011;63016;55.030;38.710;2023-03-21T14:50:30;7.55;;;3.83;;
74543;SDS011;63016;55.030;38.710;2023-03-21T14:55:54;9.68;;;3.63;;
74543;SDS011;63016;55.030;38.710;2023-03-21T14:58:23;8.10;;;4.20;;
74543;SDS011;63016;55.030;38.710;2023-03-21T15:00:50;10.55;;;4.28;;
74543;SDS011;63016;55.030;38.710;2023-03-21T15:03:17;8.85;;;4.07;;
74543;SDS011;63016;55.030;38.710;2023-03-21T15:05:46;7.55;;;4.00;;
74543;SDS011;63016;55.030;38.710;2023-03-21T15:08:13;8.82;;;4.63;;
74543;SDS011;63016;55.030;38.710;2023-03-21T15:10:41;12.35;;;4.90;;
74543;SDS011;63016;55.030;38.710;2023-03-21T15:13:21;10.90;;;5.13;;
74543;SDS011;63016;55.030;38.710;2023-03-21T15:15:50;10.88;;;4.40;;
74543;SDS011;63016;55.030;38.710;2023-03-21T15:18:40;12.15;;;4.57;;
74543;SDS011;63016;55.030;38.710;2023-03-21T15:21:07;12.20;;;4.75;;
74543;SDS011;63016;55.030;38.710;2023-03-21T15:23:37;10.35;;;4.13;;
74543;SDS011;63016;55.030;38.710;2023-03-21T15:26:06;10.57;;;5.50;;
74543;SDS011;63016;55.030;38.710;2023-03-21T15:28:32;9.52;;;4.68;;
74543;SDS011;63016;55.030;38.710;2023-03-21T15:30:59;10.30;;;4.93;;
74543;SDS011;63016;55.030;38.710;2023-03-21T15:33:25;16.05;;;7.00;;
74543;SDS011;63016;55.030;38.710;2023-03-21T15:35:55;15.05;;;7.07;;
74543;SDS011;63016;55.030;38.710;2023-03-21T15:43:47;11.52;;;6.15;;
74543;SDS011;63016;55.030;38.710;2023-03-21T15:49:07;12.93;;;6.07;;
74543;SDS011;63016;55.030;38.710;2023-03-21T15:51:34;13.43;;;6.38;;
74543;SDS011;63016;55.030;38.710;2023-03-21T15:54:01;14.68;;;6.00;;
74543;SDS011;63016;55.030;38.710;2023-03-21T15:56:27;14.20;;;6.40;;
74543;SDS011;63016;55.030;38.710;2023-03-21T15:58:59;11.63;;;5.88;;
74543;SDS011;63016;55.030;38.710;2023-03-21T16:01:31;13.18;;;6.53;;
74543;SDS011;63016;55.030;38.710;2023-03-21T16:04:09;13.75;;;6.53;;
74543;SDS011;63016;55.030;38.710;2023-03-21T16:06:37;14.65;;;6.28;;
74543;SDS011;63016;55.030;38.710;2023-03-21T16:09:15;14.57;;;6.15;;
74543;SDS011;63016;55.030;38.710;2023-03-21T16:11:51;13.02;;;5.72;;
74543;SDS011;63016;55.030;38.710;2023-03-21T16:14:17;12.82;;;5.25;;
74543;SDS011;63016;55.030;38.710;2023-03-21T16:16:44;11.40;;;5.82;;
74543;SDS011;63016;55.030;38.710;2023-03-21T16:19:10;13.75;;;6.20;;
74543;SDS011;63016;55.030;38.710;2023-03-21T16:21:37;16.15;;;6.18;;
74543;SDS011;63016;55.030;38.710;2023-03-21T16:24:03;13.73;;;6.28;;
74543;SDS011;63016;55.030;38.710;2023-03-21T16:26:31;14.40;;;6.22;;
74543;SDS011;63016;55.030;38.710;2023-03-21T16:28:58;12.35;;;6.35;;
74543;SDS011;63016;55.030;38.710;2023-03-21T16:31:28;13.88;;;6.60;;
74543;SDS011;63016;55.030;38.710;2023-03-21T16:33:56;13.45;;;6.40;;
74543;SDS011;63016;55.030;38.710;2023-03-21T16:36:23;14.57;;;7.10;;
74543;SDS011;63016;55.030;38.710;2023-03-21T16:38:51;14.13;;;6.50;;
74543;SDS011;63016;55.030;38.710;2023-03-21T16:41:18;16.05;;;7.18;;
74543;SDS011;63016;55.030;38.710;2023-03-21T16:43:45;13.95;;;6.90;;
74543;SDS011;63016;55.030;38.710;2023-03-21T16:46:13;12.88;;;6.88;;
74543;SDS011;63016;55.030;38.710;2023-03-21T16:48:45;12.65;;;6.65;;